Time;durP1;ratioP1;P1;durP2;ratioP2;P2;SDS_P1;SDS_P2;PMS_P1;PMS_P2;Temp;Humidity;BMP_temperature;BMP_pressure;BME280_temperature;BME280_humidity;BME280_pressure;Samples;Min_cycle;Max_cycle;Signal;HPM_P1;HPM_P2
2021/12/20 00:00:32;;;;;;;;;;;;;;;14.30;70.75;102540.78;1057631;28;756;-59
2021/12/20 00:01:22;;;;;;;;;;;;;;;14.31;70.67;102539.84;1058006;28;756;-59
2021/12/20 00:02:13;;;;;;;;;;;;;;;14.29;70.69;102536.38;1057742;28;758;-60
2021/12/20 00:03:03;;;;;;;;;;;;;;;14.28;71.18;102534.66;1057679;28;765;-59
2021/12/20 00:03:54;;;;;;;;;;;;;;;14.29;70.77;102542.59;1057961;28;736;-60
2021/12/20 00:04:46;;;;;;;;;;;;;;;14.30;71.28;102538.13;1057672;28;699;-60
2021/12/20 00:05:37;;;;;;;;;;;;;;;14.29;71.24;102539.06;1058345;28;741;-59
2021/12/20 00:06:27;;;;;;;;;;;;;;;14.28;71.23;102542.69;1057540;28;1424;-60
2021/12/20 00:07:18;;;;;;;;;;;;;;;14.30;71.16;102538.13;1057604;28;704;-60
2021/12/20 00:08:08;;;;;;;;;;;;;;;14.29;70.78;102542.59;1057715;28;790;-60
2021/12/20 00:08:58;;;;;;;;;;;;;;;14.29;71.34;102544.44;1057803;28;942;-59
2021/12/20 00:09:49;;;;;;;;;;;;;;;14.29;71.28;102537.25;1057651;28;836;-59
2021/12/20 00:10:39;;;;;;;;;;;;;;;14.29;70.77;102534.56;1057842;28;695;-59
2021/12/20 00:11:30;;;;;;;;;;;;;;;14.30;71.21;102540.78;1058030;28;939;-60
2021/12/20 00:12:20;;;;;;;;;;;;;;;14.28;70.74;102532.81;1057733;28;676;-59
2021/12/20 00:13:11;;;;;;;;;;;;;;;14.29;70.45;102529.19;1057971;28;786;-60
2021/12/20 00:14:01;;;;;;;;;;;;;;;14.29;70.67;102533.69;1057670;28;699;-59
2021/12/20 00:14:51;;;;;;;;;;;;;;;14.28;70.67;102535.50;1053840;28;726;-60
2021/12/20 00:15:42;;;;;;;;;;;;;;;14.28;70.83;102537.31;1053617;28;1905;-59
2021/12/20 00:16:32;;;;;;;;;;;;;;;14.28;71.26;102529.28;1058025;28;1211;-59
2021/12/20 00:17:23;;;;;;;;;;;;;;;14.28;71.10;102531.97;1057886;28;733;-59
2021/12/20 00:18:13;;;;;;;;;;;;;;;14.28;71.19;102535.50;1057596;28;684;-59
2021/12/20 00:19:04;;;;;;;;;;;;;;;14.29;70.83;102534.56;1057807;28;710;-59
2021/12/20 00:19:54;;;;;;;;;;;;;;;14.28;71.32;102526.59;1057630;28;2008;-60
2021/12/20 00:20:44;;;;;;;;;;;;;;;14.29;70.77;102528.34;1054009;28;2078;-59
2021/12/20 00:21:35;;;;;;;;;;;;;;;14.29;70.93;102529.19;1053625;28;719;-59
2021/12/20 00:22:25;;;;;;;;;;;;;;;14.28;71.56;102532.81;1058195;28;628;-59
2021/12/20 00:23:16;;;;;;;;;;;;;;;14.28;71.11;102527.47;1053698;28;823;-59
2021/12/20 00:24:06;;;;;;;;;;;;;;;14.29;70.73;102528.34;1053738;28;894;-59
2021/12/20 00:24:57;;;;;;;;;;;;;;;14.28;70.64;102524.78;1058226;28;699;-59
2021/12/20 00:25:48;;;;;;;;;;;;;;;14.28;71.06;102531.97;1057579;28;827;-59
2021/12/20 00:26:39;;;;;;;;;;;;;;;14.28;71.17;102531.97;1058152;28;768;-59
2021/12/20 00:27:29;;;;;;;;;;;;;;;14.28;71.53;102529.28;1057598;28;617;-59
2021/12/20 00:28:20;;;;;;;;;;;;;;;14.29;71.37;102536.38;1057639;28;683;-59
2021/12/20 00:29:10;;;;;;;;;;;;;;;14.28;70.89;102522.09;1057489;28;677;-59
2021/12/20 00:30:00;;;;;;;;;;;;;;;14.30;70.77;102527.38;1053665;28;664;-59
2021/12/20 00:30:51;;;;;;;;;;;;;;;14.29;70.95;102522.97;1054816;28;791;-58
2021/12/20 00:31:41;;;;;;;;;;;;;;;14.28;71.30;102524.78;1054311;28;806;-59
2021/12/20 00:32:32;;;;;;;;;;;;;;;14.28;71.31;102521.22;1058428;28;712;-59
2021/12/20 00:33:22;;;;;;;;;;;;;;;14.28;70.89;102521.22;1057613;28;609;-59
2021/12/20 00:34:12;;;;;;;;;;;;;;;14.29;71.37;102513.13;1057652;28;641;-59
2021/12/20 00:35:03;;;;;;;;;;;;;;;14.28;71.14;102523.91;1057349;28;743;-59
2021/12/20 00:35:53;;;;;;;;;;;;;;;14.28;71.46;102521.22;1057598;28;1914;-59
2021/12/20 00:36:44;;;;;;;;;;;;;;;14.28;71.32;102524.78;1058042;28;918;-59
2021/12/20 00:41:02;;;;;;;;;;;;;;;14.28;71.52;102521.22;1054450;28;919;-59
2021/12/20 00:41:53;;;;;;;;;;;;;;;14.25;71.55;102517.75;1053981;28;623;-57
2021/12/20 00:42:43;;;;;;;;;;;;;;;14.27;71.00;102520.38;1054071;28;962;-58
2021/12/20 00:43:34;;;;;;;;;;;;;;;14.28;71.61;102526.59;1054099;28;785;-58
2021/12/20 00:44:24;;;;;;;;;;;;;;;14.28;71.22;102516.75;1053944;28;699;-58
2021/12/20 00:45:15;;;;;;;;;;;;;;;14.28;71.38;102515.88;1054111;28;788;-56
2021/12/20 00:46:05;;;;;;;;;;;;;;;14.27;71.27;102519.50;1053938;28;735;-59
2021/12/20 00:46:55;;;;;;;;;;;;;;;14.27;70.88;102519.50;1054029;28;859;-59
2021/12/20 00:47:46;;;;;;;;;;;;;;;14.25;70.98;102515.09;1053748;28;677;-59
2021/12/20 00:48:36;;;;;;;;;;;;;;;14.25;71.38;102512.41;1058080;28;628;-58
2021/12/20 00:49:28;;;;;;;;;;;;;;;14.27;71.28;102519.50;1054212;28;806;-59
2021/12/20 00:50:18;;;;;;;;;;;;;;;14.29;70.79;102522.97;1049939;28;747;-59
2021/12/20 00:51:08;;;;;;;;;;;;;;;14.27;71.04;102517.69;1054399;28;999;-59
2021/12/20 00:51:59;;;;;;;;;;;;;;;14.27;71.40;102519.50;1052618;28;749;-59
2021/12/20 00:52:49;;;;;;;;;;;;;;;14.28;71.34;102523.91;1053329;28;796;-59
2021/12/20 00:53:40;;;;;;;;;;;;;;;14.28;71.08;102523.91;1053987;28;665;-59
2021/12/20 00:54:30;;;;;;;;;;;;;;;14.27;71.20;102524.88;1053372;28;641;-59
2021/12/20 00:55:20;;;;;;;;;;;;;;;14.25;70.97;102523.13;1053277;28;797;-59
2021/12/20 00:56:11;;;;;;;;;;;;;;;14.25;71.28;102522.25;1053253;28;795;-59
2021/12/20 00:57:01;;;;;;;;;;;;;;;14.24;71.49;102518.72;1053439;28;712;-59
2021/12/20 00:57:52;;;;;;;;;;;;;;;14.27;71.31;102519.50;1054502;28;739;-59
2021/12/20 00:58:42;;;;;;;;;;;;;;;14.26;71.09;102518.63;1053271;28;796;-59
2021/12/20 00:59:32;;;;;;;;;;;;;;;14.25;70.97;102522.25;1054540;28;1838;-59
2021/12/20 01:00:23;;;;;;;;;;;;;;;14.26;71.36;102518.63;1057562;28;657;-59
2021/12/20 01:01:13;;;;;;;;;;;;;;;14.25;71.11;102516.91;1057535;28;778;-59
2021/12/20 01:02:04;;;;;;;;;;;;;;;14.25;71.32;102517.75;1057962;28;732;-59
2021/12/20 01:02:54;;;;;;;;;;;;;;;14.25;70.94;102520.44;1057450;28;714;-60
2021/12/20 01:03:45;;;;;;;;;;;;;;;14.24;71.02;102521.38;1057538;28;862;-59
2021/12/20 01:04:35;;;;;;;;;;;;;;;14.25;71.51;102528.50;1057500;28;684;-59
2021/12/20 01:05:25;;;;;;;;;;;;;;;14.25;71.36;102517.75;1057555;28;818;-60
2021/12/20 01:06:16;;;;;;;;;;;;;;;14.25;71.41;102523.13;1057255;28;1361;-60
2021/12/20 01:07:06;;;;;;;;;;;;;;;14.24;71.35;102524.06;1057451;28;788;-61
2021/12/20 01:08:00;;;;;;;;;;;;;;;14.24;71.28;102521.38;1057427;28;694;-60
2021/12/20 01:08:51;;;;;;;;;;;;;;;14.22;70.93;102515.25;1058025;28;718;-59
2021/12/20 01:09:42;;;;;;;;;;;;;;;14.22;71.38;102517.94;1058114;28;777;-59
2021/12/20 01:10:32;;;;;;;;;;;;;;;14.24;70.89;102521.38;1057327;28;667;-59
2021/12/20 01:11:26;;;;;;;;;;;;;;;14.23;71.49;102519.66;1058149;28;645;-59
2021/12/20 01:12:19;;;;;;;;;;;;;;;14.23;70.91;102513.44;1057970;28;897;-59
2021/12/20 01:13:10;;;;;;;;;;;;;;;14.23;71.28;102527.69;1058150;28;760;-59
2021/12/20 01:14:00;;;;;;;;;;;;;;;14.23;71.44;102522.34;1057320;28;774;-59
2021/12/20 01:14:58;;;;;;;;;;;;;;;14.24;71.12;102520.53;1054592;28;1804;-59
2021/12/20 01:15:51;;;;;;;;;;;;;;;14.24;71.38;102523.22;1057925;28;1890;-59
2021/12/20 01:16:42;;;;;;;;;;;;;;;14.23;71.45;102525.03;1058343;28;1277;-59
2021/12/20 01:17:32;;;;;;;;;;;;;;;14.22;70.79;102517.06;1057318;28;664;-59
2021/12/20 01:18:23;;;;;;;;;;;;;;;14.23;71.03;102519.66;1057438;28;845;-60
2021/12/20 01:19:13;;;;;;;;;;;;;;;14.22;71.24;102520.59;1056729;28;1983;-60
2021/12/20 01:20:03;;;;;;;;;;;;;;;14.22;71.14;102523.28;1053747;28;685;-59
2021/12/20 01:20:54;;;;;;;;;;;;;;;14.23;70.84;102526.84;1053706;28;685;-59
2021/12/20 01:21:44;;;;;;;;;;;;;;;14.22;71.16;102531.31;1053683;28;632;-59
2021/12/20 01:22:35;;;;;;;;;;;;;;;14.23;71.59;102524.16;1053847;28;909;-59
2021/12/20 01:23:25;;;;;;;;;;;;;;;14.21;70.83;102526.91;1053817;28;693;-59
2021/12/20 01:24:16;;;;;;;;;;;;;;;14.19;71.16;102528.81;1053722;28;676;-59
2021/12/20 01:25:06;;;;;;;;;;;;;;;14.21;70.68;102526.03;1053678;28;684;-59
2021/12/20 01:25:56;;;;;;;;;;;;;;;14.19;71.50;102528.81;1053657;28;794;-59
2021/12/20 01:26:47;;;;;;;;;;;;;;;14.21;70.83;102526.91;1050477;28;858;-59
2021/12/20 01:27:37;;;;;;;;;;;;;;;14.21;70.98;102518.88;1051125;28;620;-59
2021/12/20 01:28:28;;;;;;;;;;;;;;;14.21;71.34;102520.69;1055346;27;692;-59
2021/12/20 01:29:18;;;;;;;;;;;;;;;14.20;71.18;102525.19;1053721;28;929;-59
2021/12/20 01:30:09;;;;;;;;;;;;;;;14.21;71.02;102516.19;1053870;28;628;-59
2021/12/20 01:30:59;;;;;;;;;;;;;;;14.21;70.78;102521.56;1053566;28;921;-59
2021/12/20 01:31:49;;;;;;;;;;;;;;;14.20;71.55;102524.31;1050289;28;973;-59
2021/12/20 01:32:40;;;;;;;;;;;;;;;14.19;71.00;102523.44;1045659;28;781;-60
2021/12/20 01:33:30;;;;;;;;;;;;;;;14.21;71.10;102526.03;1049697;28;697;-59
2021/12/20 01:34:21;;;;;;;;;;;;;;;14.20;70.80;102517.13;1053600;28;700;-59
2021/12/20 01:35:11;;;;;;;;;;;;;;;14.19;70.78;102525.25;1053493;28;792;-59
2021/12/20 01:36:01;;;;;;;;;;;;;;;14.19;71.03;102518.09;1053740;28;1910;-59
2021/12/20 01:36:52;;;;;;;;;;;;;;;14.19;71.38;102518.09;1053606;28;810;-59
2021/12/20 01:37:42;;;;;;;;;;;;;;;14.20;70.97;102513.59;1053548;28;625;-59
2021/12/20 01:38:33;;;;;;;;;;;;;;;14.19;70.75;102512.72;1053846;28;625;-59
2021/12/20 01:39:23;;;;;;;;;;;;;;;14.19;70.65;102517.22;1057655;28;1614;-59
2021/12/20 01:40:14;;;;;;;;;;;;;;;14.18;70.56;102519.03;1058493;28;636;-59
2021/12/20 01:41:04;;;;;;;;;;;;;;;14.19;70.93;102514.53;1054890;28;1975;-59
2021/12/20 01:41:54;;;;;;;;;;;;;;;14.18;71.42;102513.66;1053937;28;785;-59
2021/12/20 01:42:45;;;;;;;;;;;;;;;14.18;71.44;102516.34;1053652;28;774;-59
2021/12/20 01:43:36;;;;;;;;;;;;;;;14.18;70.89;102521.72;1053574;28;896;-59
2021/12/20 01:44:27;;;;;;;;;;;;;;;14.17;71.52;102514.63;1052548;28;630;-59
2021/12/20 01:45:17;;;;;;;;;;;;;;;14.18;70.92;102519.03;1053524;28;751;-59
2021/12/20 01:46:08;;;;;;;;;;;;;;;14.18;71.38;102513.66;1053533;28;621;-59
2021/12/20 01:47:01;;;;;;;;;;;;;;;14.19;71.19;102507.34;1053766;28;791;-59
2021/12/20 01:48:01;;;;;;;;;;;;;;;14.19;70.85;102502.00;1052671;28;869;-59
2021/12/20 01:48:52;;;;;;;;;;;;;;;14.18;70.58;102511.00;1052690;28;722;-59
2021/12/20 01:49:56;;;;;;;;;;;;;;;14.17;70.73;102506.56;1053617;28;865;-59
2021/12/20 01:52:49;;;;;;;;;;;;;;;14.18;70.74;102513.66;1054218;28;775;-60
2021/12/20 01:53:39;;;;;;;;;;;;;;;14.15;71.02;102505.78;1053576;28;736;-59
2021/12/20 01:54:30;;;;;;;;;;;;;;;14.17;71.21;102514.63;1053728;28;632;-58
2021/12/20 01:55:20;;;;;;;;;;;;;;;14.17;71.06;102503.88;1053660;28;695;-58
2021/12/20 01:56:11;;;;;;;;;;;;;;;14.17;70.90;102509.25;1053624;28;996;-59
2021/12/20 01:57:01;;;;;;;;;;;;;;;14.17;70.77;102511.06;1053568;28;720;-59
2021/12/20 01:57:51;;;;;;;;;;;;;;;14.17;71.52;102501.22;1053528;28;755;-59
2021/12/20 01:58:42;;;;;;;;;;;;;;;14.18;71.57;102508.31;1054172;28;1882;-59
2021/12/20 01:59:32;;;;;;;;;;;;;;;14.18;71.31;102511.00;1057086;28;876;-59
2021/12/20 02:00:23;;;;;;;;;;;;;;;14.19;71.29;102507.34;1057352;28;886;-59
2021/12/20 02:02:04;;;;;;;;;;;;;;;14.17;71.13;102509.25;1056665;28;727;-60
2021/12/20 02:03:00;;;;;;;;;;;;;;;14.18;71.26;102510.13;1058306;28;785;-59
2021/12/20 02:03:55;;;;;;;;;;;;;;;14.17;71.49;102514.63;1057773;28;771;-59
2021/12/20 02:04:49;;;;;;;;;;;;;;;14.17;70.79;102511.94;1057414;28;665;-58
2021/12/20 02:05:51;;;;;;;;;;;;;;;14.17;71.10;102511.94;1057430;28;681;-59
2021/12/20 02:06:46;;;;;;;;;;;;;;;14.17;71.08;102511.94;1057868;28;621;-58
2021/12/20 02:07:50;;;;;;;;;;;;;;;14.16;71.47;102509.34;1057825;28;686;-58
2021/12/20 02:08:40;;;;;;;;;;;;;;;14.15;70.83;102511.16;1057163;28;769;-59
2021/12/20 02:09:31;;;;;;;;;;;;;;;14.15;70.78;102513.81;1057463;28;633;-59
2021/12/20 02:10:21;;;;;;;;;;;;;;;14.15;70.70;102500.41;1057138;28;842;-59
2021/12/20 02:11:11;;;;;;;;;;;;;;;14.17;70.97;102506.56;1057242;28;1373;-59
2021/12/20 02:12:02;;;;;;;;;;;;;;;14.17;71.52;102514.63;1057729;28;726;-58
2021/12/20 02:12:52;;;;;;;;;;;;;;;14.16;71.27;102503.97;1053261;28;738;-59
2021/12/20 02:13:43;;;;;;;;;;;;;;;14.17;71.29;102519.09;1052309;28;1809;-59
2021/12/20 02:14:33;;;;;;;;;;;;;;;14.17;71.43;102516.44;1048312;28;802;-59
2021/12/20 02:15:23;;;;;;;;;;;;;;;14.15;70.88;102508.47;1050195;28;715;-59
2021/12/20 02:16:14;;;;;;;;;;;;;;;14.17;71.24;102511.06;1054044;28;707;-58
2021/12/20 02:17:04;;;;;;;;;;;;;;;14.15;71.04;102505.78;1054705;28;680;-59
2021/12/20 02:17:55;;;;;;;;;;;;;;;14.15;70.42;102503.09;1054662;28;715;-58
2021/12/20 02:18:45;;;;;;;;;;;;;;;14.16;70.45;102512.00;1057658;28;2022;-59
2021/12/20 02:19:36;;;;;;;;;;;;;;;14.13;70.72;102515.75;1057301;28;668;-58
2021/12/20 02:20:26;;;;;;;;;;;;;;;14.13;70.92;102512.19;1056952;28;779;-58
2021/12/20 02:21:16;;;;;;;;;;;;;;;14.13;71.27;102518.44;1057111;28;684;-59
2021/12/20 02:22:07;;;;;;;;;;;;;;;14.13;70.65;102515.75;1057293;28;632;-60
2021/12/20 02:22:57;;;;;;;;;;;;;;;14.12;70.62;102511.34;1053188;28;732;-60
2021/12/20 02:23:48;;;;;;;;;;;;;;;14.13;71.00;102513.06;1053415;28;641;-59
2021/12/20 02:24:38;;;;;;;;;;;;;;;14.13;70.82;102512.19;1057722;28;633;-59
2021/12/20 02:25:29;;;;;;;;;;;;;;;14.14;70.79;102513.94;1057289;28;723;-60
2021/12/20 02:26:20;;;;;;;;;;;;;;;14.12;70.82;102502.44;1056987;28;1120;-59
2021/12/20 02:27:11;;;;;;;;;;;;;;;14.13;71.24;102512.19;1057746;28;738;-59
2021/12/20 02:28:01;;;;;;;;;;;;;;;14.14;70.86;102513.94;1057692;28;695;-59
2021/12/20 02:28:53;;;;;;;;;;;;;;;14.13;70.88;102510.38;1057228;28;738;-59
2021/12/20 02:30:02;;;;;;;;;;;;;;;14.13;70.49;102513.06;1057148;28;648;-59
2021/12/20 02:37:35;;;;;;;;;;;;;;;14.12;70.73;102500.59;1053430;28;820;-56
2021/12/20 02:38:26;;;;;;;;;;;;;;;14.11;70.89;102493.50;1054494;28;2052;-58
2021/12/20 02:39:16;;;;;;;;;;;;;;;14.11;70.81;102493.50;1052467;28;744;-56
2021/12/20 02:40:07;;;;;;;;;;;;;;;14.10;71.17;102497.16;1053575;28;699;-58
2021/12/20 02:40:58;;;;;;;;;;;;;;;14.10;70.48;102496.28;1053462;28;614;-57
2021/12/20 02:41:48;;;;;;;;;;;;;;;14.10;71.31;102496.28;1052162;28;843;-58
2021/12/20 02:42:41;;;;;;;;;;;;;;;14.10;71.26;102497.16;1050113;28;725;-57
2021/12/20 02:43:36;;;;;;;;;;;;;;;14.12;70.45;102499.75;1050820;28;666;-58
2021/12/20 02:44:28;;;;;;;;;;;;;;;14.11;71.10;102501.56;1055234;28;808;-56
2021/12/20 02:45:18;;;;;;;;;;;;;;;14.12;70.67;102503.28;1052523;28;745;-56
2021/12/20 02:46:12;;;;;;;;;;;;;;;14.12;71.17;102500.59;1053436;28;679;-58
2021/12/20 02:47:06;;;;;;;;;;;;;;;14.12;71.10;102497.06;1052678;28;708;-57
2021/12/20 02:47:57;;;;;;;;;;;;;;;14.10;71.14;102497.16;1052524;28;771;-58
2021/12/20 02:48:47;;;;;;;;;;;;;;;14.10;70.72;102491.78;1053561;28;676;-52
2021/12/20 02:49:38;;;;;;;;;;;;;;;14.10;71.24;102489.09;1054484;28;1601;-55
2021/12/20 02:50:28;;;;;;;;;;;;;;;14.11;71.04;102487.28;1058389;28;778;-56
2021/12/20 02:51:18;;;;;;;;;;;;;;;14.11;70.37;102489.97;1057817;28;738;-56
2021/12/20 02:52:09;;;;;;;;;;;;;;;14.10;71.11;102486.41;1057676;28;750;-57
2021/12/20 02:52:59;;;;;;;;;;;;;;;14.09;70.99;102484.69;1057717;28;691;-56
2021/12/20 02:53:50;;;;;;;;;;;;;;;14.09;70.67;102478.44;1057831;28;817;-57
2021/12/20 02:54:40;;;;;;;;;;;;;;;14.09;70.34;102479.31;1057698;28;633;-55
2021/12/20 02:55:31;;;;;;;;;;;;;;;14.08;70.61;102488.31;1058372;28;645;-55
2021/12/20 02:56:21;;;;;;;;;;;;;;;14.09;71.31;102484.69;1057583;28;1009;-56
2021/12/20 02:57:11;;;;;;;;;;;;;;;14.08;70.51;102482.94;1057769;28;705;-53
2021/12/20 02:58:02;;;;;;;;;;;;;;;14.09;70.69;102484.69;1056264;28;1810;-56
2021/12/20 02:58:52;;;;;;;;;;;;;;;14.09;71.19;102483.81;1053494;28;811;-56
2021/12/20 02:59:43;;;;;;;;;;;;;;;14.10;70.97;102486.41;1053564;28;641;-55
2021/12/20 03:00:33;;;;;;;;;;;;;;;14.10;70.55;102482.88;1053924;28;934;-56
2021/12/20 03:01:24;;;;;;;;;;;;;;;14.10;70.44;102481.06;1053479;28;661;-54
2021/12/20 03:02:14;;;;;;;;;;;;;;;14.10;70.22;102486.41;1053344;28;733;-57
2021/12/20 03:03:04;;;;;;;;;;;;;;;14.10;70.65;102491.78;1053391;28;761;-56
2021/12/20 03:03:55;;;;;;;;;;;;;;;14.09;71.29;102492.72;1053509;28;822;-54
2021/12/20 03:04:45;;;;;;;;;;;;;;;14.09;70.68;102490.03;1053457;28;857;-56
2021/12/20 03:05:36;;;;;;;;;;;;;;;14.08;71.19;102488.31;1053492;28;716;-55
2021/12/20 03:06:26;;;;;;;;;;;;;;;14.08;71.24;102488.31;1053518;28;605;-55
2021/12/20 03:07:22;;;;;;;;;;;;;;;14.09;71.04;102484.69;1053480;28;720;-56
2021/12/20 03:08:13;;;;;;;;;;;;;;;14.09;70.41;102487.38;1053635;28;746;-56
2021/12/20 03:09:03;;;;;;;;;;;;;;;14.09;70.96;102490.03;1050177;28;889;-56
2021/12/20 03:09:59;;;;;;;;;;;;;;;14.09;70.93;102490.03;1050685;28;721;-56
2021/12/20 03:10:49;;;;;;;;;;;;;;;14.08;70.61;102491.00;1053394;28;714;-55
2021/12/20 03:11:40;;;;;;;;;;;;;;;14.08;70.17;102491.00;1053262;28;625;-55
2021/12/20 03:12:32;;;;;;;;;;;;;;;14.08;70.64;102493.66;1053444;28;787;-56
2021/12/20 03:13:23;;;;;;;;;;;;;;;14.08;70.54;102493.66;1053451;28;841;-55
2021/12/20 03:14:25;;;;;;;;;;;;;;;14.08;70.30;102491.00;1053484;28;833;-54
2021/12/20 03:15:20;;;;;;;;;;;;;;;14.07;70.99;102494.63;1053721;28;755;-56
2021/12/20 03:16:10;;;;;;;;;;;;;;;14.08;70.84;102492.81;1053977;28;1968;-54
2021/12/20 03:17:01;;;;;;;;;;;;;;;14.08;71.05;102492.81;1054265;28;758;-54
2021/12/20 03:17:57;;;;;;;;;;;;;;;14.07;70.36;102491.94;1055187;28;1889;-56
2021/12/20 03:18:48;;;;;;;;;;;;;;;14.07;70.94;102491.06;1054102;28;2007;-55
2021/12/20 03:19:38;;;;;;;;;;;;;;;14.09;70.79;102484.69;1054237;28;832;-55
2021/12/20 03:20:28;;;;;;;;;;;;;;;14.08;70.77;102495.47;1054227;28;732;-56
2021/12/20 03:21:19;;;;;;;;;;;;;;;14.08;70.82;102488.31;1054228;28;762;-57
2021/12/20 03:22:09;;;;;;;;;;;;;;;14.09;70.94;102494.53;1054068;28;625;-57
2021/12/20 03:23:00;;;;;;;;;;;;;;;14.06;70.77;102489.34;1054115;28;618;-54
2021/12/20 03:23:50;;;;;;;;;;;;;;;14.06;70.52;102495.56;1054136;28;593;-56
2021/12/20 03:24:40;;;;;;;;;;;;;;;14.07;71.18;102485.72;1054292;28;633;-57
2021/12/20 03:25:31;;;;;;;;;;;;;;;14.07;70.99;102488.38;1054315;28;883;-56
2021/12/20 03:26:21;;;;;;;;;;;;;;;14.05;70.18;102483.09;1054294;28;609;-56
2021/12/20 03:27:12;;;;;;;;;;;;;;;14.06;70.35;102487.53;1054341;28;641;-57
2021/12/20 03:28:02;;;;;;;;;;;;;;;14.05;70.43;102491.16;1054132;28;780;-57
2021/12/20 03:28:52;;;;;;;;;;;;;;;14.05;70.95;102493.81;1054304;28;617;-56
2021/12/20 03:29:43;;;;;;;;;;;;;;;14.05;71.20;102488.47;1054218;28;774;-56
2021/12/20 03:30:33;;;;;;;;;;;;;;;14.05;70.70;102488.47;1054159;28;660;-56
2021/12/20 03:31:24;;;;;;;;;;;;;;;14.06;70.30;102483.97;1054161;28;1450;-54
2021/12/20 03:32:14;;;;;;;;;;;;;;;14.06;70.44;102479.47;1054135;28;621;-56
2021/12/20 03:33:05;;;;;;;;;;;;;;;14.04;70.95;102481.38;1054093;28;778;-56
2021/12/20 03:33:55;;;;;;;;;;;;;;;14.05;70.49;102476.88;1054173;28;865;-56
2021/12/20 03:34:45;;;;;;;;;;;;;;;14.05;70.96;102483.09;1054211;28;688;-56
2021/12/20 03:35:36;;;;;;;;;;;;;;;14.05;70.60;102480.44;1054213;28;684;-56
2021/12/20 03:36:26;;;;;;;;;;;;;;;14.06;70.22;102483.97;1054119;28;680;-55
2021/12/20 03:37:17;;;;;;;;;;;;;;;14.06;70.32;102490.19;1053917;28;766;-57
2021/12/20 03:38:08;;;;;;;;;;;;;;;14.06;71.11;102489.34;1058946;28;803;-56
2021/12/20 03:38:58;;;;;;;;;;;;;;;14.05;70.50;102487.59;1055940;27;837;-57
2021/12/20 03:39:49;;;;;;;;;;;;;;;14.04;70.48;102486.72;1055761;28;695;-57
2021/12/20 03:40:39;;;;;;;;;;;;;;;14.05;70.44;102492.97;1055958;28;806;-56
2021/12/20 03:41:30;;;;;;;;;;;;;;;14.05;71.11;102488.47;1055872;28;629;-57
2021/12/20 03:42:20;;;;;;;;;;;;;;;14.05;70.97;102484.91;1055933;27;902;-57
2021/12/20 03:43:12;;;;;;;;;;;;;;;14.04;70.84;102486.72;1053601;28;710;-57
2021/12/20 03:44:03;;;;;;;;;;;;;;;14.03;71.10;102482.31;1055911;27;758;-57
2021/12/20 03:44:53;;;;;;;;;;;;;;;14.02;70.97;102483.25;1055702;27;720;-58
2021/12/20 03:45:48;;;;;;;;;;;;;;;14.03;70.97;102490.38;1055924;27;675;-57
2021/12/20 03:46:39;;;;;;;;;;;;;;;14.04;70.79;102492.09;1055574;28;743;-56
2021/12/20 03:47:29;;;;;;;;;;;;;;;14.03;70.39;102490.38;1055988;27;695;-57
2021/12/20 03:48:20;;;;;;;;;;;;;;;14.04;70.05;102492.09;1055752;27;798;-57
2021/12/20 03:49:10;;;;;;;;;;;;;;;14.05;70.49;102498.31;1055947;27;798;-56
2021/12/20 03:50:01;;;;;;;;;;;;;;;14.06;70.54;102489.34;1058312;28;736;-57
2021/12/20 03:50:51;;;;;;;;;;;;;;;14.04;71.02;102492.09;1058364;28;737;-57
2021/12/20 03:51:42;;;;;;;;;;;;;;;14.05;70.92;102493.81;1058380;28;609;-57
2021/12/20 03:52:32;;;;;;;;;;;;;;;14.05;70.95;102492.97;1058295;28;703;-57
2021/12/20 03:53:23;;;;;;;;;;;;;;;14.03;70.98;102487.69;1058408;28;625;-58
2021/12/20 03:54:13;;;;;;;;;;;;;;;14.03;70.87;102487.69;1057856;28;779;-59
2021/12/20 03:55:04;;;;;;;;;;;;;;;14.03;70.30;102485.00;1054441;28;781;-58
2021/12/20 03:55:54;;;;;;;;;;;;;;;14.05;71.03;102487.59;1054280;28;1893;-58
2021/12/20 03:56:46;;;;;;;;;;;;;;;14.04;70.29;102493.91;1058367;28;850;-59
2021/12/20 03:57:36;;;;;;;;;;;;;;;14.03;70.13;102484.13;1058815;28;686;-59
2021/12/20 03:58:27;;;;;;;;;;;;;;;14.03;70.79;102482.31;1054467;28;723;-59
2021/12/20 03:59:18;;;;;;;;;;;;;;;14.04;70.88;102486.72;1053813;28;868;-58
2021/12/20 04:00:08;;;;;;;;;;;;;;;14.02;70.96;102485.94;1057681;28;683;-59
2021/12/20 04:00:58;;;;;;;;;;;;;;;14.03;70.91;102484.13;1057722;28;778;-58
2021/12/20 04:01:50;;;;;;;;;;;;;;;14.02;70.37;102483.25;1058279;28;718;-59
2021/12/20 04:02:43;;;;;;;;;;;;;;;14.03;70.73;102481.44;1058091;28;780;-58
2021/12/20 04:03:35;;;;;;;;;;;;;;;14.03;70.50;102487.69;1058281;28;735;-58
2021/12/20 04:04:25;;;;;;;;;;;;;;;14.03;70.18;102484.13;1058221;28;704;-56
2021/12/20 04:05:16;;;;;;;;;;;;;;;14.01;71.05;102481.53;1058229;28;825;-58
2021/12/20 04:06:06;;;;;;;;;;;;;;;14.01;70.84;102486.88;1058319;28;786;-57
2021/12/20 04:06:57;;;;;;;;;;;;;;;14.02;70.20;102477.91;1058204;28;817;-58
2021/12/20 04:07:47;;;;;;;;;;;;;;;14.01;70.23;102483.34;1058433;28;629;-57
2021/12/20 04:08:37;;;;;;;;;;;;;;;14.02;71.06;102487.75;1058278;28;703;-57
2021/12/20 04:09:28;;;;;;;;;;;;;;;14.00;70.19;102481.59;1058280;28;843;-57
2021/12/20 04:10:18;;;;;;;;;;;;;;;14.00;70.16;102487.84;1058370;28;727;-55
2021/12/20 04:11:09;;;;;;;;;;;;;;;14.02;71.03;102485.06;1058377;28;669;-55
2021/12/20 04:11:59;;;;;;;;;;;;;;;14.01;70.45;102492.25;1057063;28;702;-56
2021/12/20 04:12:50;;;;;;;;;;;;;;;14.02;70.89;102482.41;1058328;28;795;-58
2021/12/20 04:13:40;;;;;;;;;;;;;;;14.01;70.85;102496.75;1058344;28;779;-56
2021/12/20 04:14:30;;;;;;;;;;;;;;;13.98;70.41;102484.38;1058368;28;668;-57
2021/12/20 04:15:21;;;;;;;;;;;;;;;14.00;70.33;102490.53;1058414;28;722;-57
2021/12/20 04:16:11;;;;;;;;;;;;;;;13.99;70.84;102488.78;1058049;28;1959;-57
2021/12/20 04:17:01;;;;;;;;;;;;;;;13.99;70.14;102488.78;1056324;28;1802;-56
2021/12/20 04:17:52;;;;;;;;;;;;;;;13.98;71.13;102481.69;1055027;28;958;-56
2021/12/20 04:18:42;;;;;;;;;;;;;;;13.99;70.91;102488.78;1055135;28;661;-56
2021/12/20 04:19:33;;;;;;;;;;;;;;;13.97;70.29;102485.34;1054608;28;656;-57
2021/12/20 04:20:23;;;;;;;;;;;;;;;13.97;70.51;102479.13;1053994;28;629;-54
2021/12/20 04:21:14;;;;;;;;;;;;;;;13.99;70.08;102485.22;1054147;28;749;-55
2021/12/20 04:22:04;;;;;;;;;;;;;;;13.99;70.27;102485.22;1053819;28;920;-57
2021/12/20 04:22:55;;;;;;;;;;;;;;;13.98;70.92;102484.38;1054037;28;883;-55
2021/12/20 04:23:45;;;;;;;;;;;;;;;13.99;70.74;102491.47;1054024;28;649;-56
2021/12/20 04:24:35;;;;;;;;;;;;;;;14.00;70.49;102486.97;1058532;28;636;-57
2021/12/20 04:25:26;;;;;;;;;;;;;;;13.99;70.50;102490.59;1058580;28;657;-56
2021/12/20 04:26:16;;;;;;;;;;;;;;;13.98;70.22;102491.53;1053946;28;801;-56
2021/12/20 04:27:06;;;;;;;;;;;;;;;13.98;70.98;102491.53;1053986;28;645;-57
2021/12/20 04:27:57;;;;;;;;;;;;;;;13.98;70.75;102492.41;1054089;28;730;-58
2021/12/20 04:28:47;;;;;;;;;;;;;;;13.98;70.60;102489.72;1053888;28;625;-57
2021/12/20 04:29:38;;;;;;;;;;;;;;;13.98;70.08;102488.88;1053910;28;706;-56
2021/12/20 04:30:29;;;;;;;;;;;;;;;13.99;70.12;102491.47;1053931;28;960;-57
2021/12/20 04:31:19;;;;;;;;;;;;;;;13.98;70.82;102491.53;1053194;28;995;-55
2021/12/20 04:32:10;;;;;;;;;;;;;;;13.99;70.40;102495.97;1054093;28;735;-56
2021/12/20 04:33:00;;;;;;;;;;;;;;;13.98;70.07;102494.22;1053890;28;693;-54
2021/12/20 04:33:51;;;;;;;;;;;;;;;13.98;70.26;102491.53;1053729;28;654;-56
2021/12/20 04:34:41;;;;;;;;;;;;;;;13.98;70.88;102491.53;1054114;28;793;-57
2021/12/20 04:35:31;;;;;;;;;;;;;;;13.97;70.84;102493.38;1053970;28;812;-57
2021/12/20 04:36:22;;;;;;;;;;;;;;;13.97;70.23;102495.19;1054005;28;760;-60
2021/12/20 04:37:12;;;;;;;;;;;;;;;13.97;70.04;102490.72;1055927;28;1659;-60
2021/12/20 04:38:03;;;;;;;;;;;;;;;13.98;69.85;102486.19;1055046;28;1969;-60
2021/12/20 04:38:54;;;;;;;;;;;;;;;13.98;70.80;102489.72;1054135;28;759;-59
2021/12/20 04:39:44;;;;;;;;;;;;;;;13.99;70.59;102494.16;1054022;28;609;-58
2021/12/20 04:40:35;;;;;;;;;;;;;;;13.97;70.60;102488.03;1054194;28;843;-58
2021/12/20 04:41:25;;;;;;;;;;;;;;;13.97;69.92;102492.53;1054040;28;687;-57